Terminal Aerodrome Forecast
Issued by NWS

Current Version | Previous Version | Graphics & Text | Print | Product List | Glossary On
Versions: 1 2 3 4 5 6 7 8 9 10 11 12 13 14 15 16 17 18 19 20 21 22 23 24 25 26 27
000
FTUS41 KRLX 130800 AAA
TAFCKB
TAF AMD
KCKB 130803Z 1308/1406 VRB03KT P6SM VCSH OVC025
      TEMPO 1308/1310 1SM SHRA BR
     FM131000 00000KT 5SM -SHRA BR OVC025
     FM131200 VRB03KT 4SM SHRA BR OVC010
     FM131600 27005KT 6SM SHRA BR OVC020
     FM132000 29006KT P6SM BKN035=

USA.gov is the U.S. government's official web portal to all federal, state and local government web resources and services.